sensor_id;sensor_type;location;lat;lon;timestamp;P1;durP1;ratioP1;P2;durP2;ratioP2
17714;SDS011;8977;50.902;4.314;2022-11-20T00:00:18;24.10;;;16.73;;
17714;SDS011;8977;50.902;4.314;2022-11-20T00:02:45;25.57;;;18.80;;
17714;SDS011;8977;50.902;4.314;2022-11-20T00:05:12;29.07;;;18.60;;
17714;SDS011;8977;50.902;4.314;2022-11-20T00:07:40;38.07;;;23.10;;
17714;SDS011;8977;50.902;4.314;2022-11-20T00:10:07;33.63;;;24.23;;
17714;SDS011;8977;50.902;4.314;2022-11-20T00:12:34;33.37;;;21.60;;
17714;SDS011;8977;50.902;4.314;2022-11-20T00:15:01;26.40;;;20.17;;
17714;SDS011;8977;50.902;4.314;2022-11-20T00:17:28;27.17;;;19.43;;
17714;SDS011;8977;50.902;4.314;2022-11-20T00:19:55;26.27;;;19.23;;
17714;SDS011;8977;50.902;4.314;2022-11-20T00:22:22;26.33;;;19.70;;
17714;SDS011;8977;50.902;4.314;2022-11-20T00:24:50;26.57;;;18.73;;
17714;SDS011;8977;50.902;4.314;2022-11-20T00:27:17;26.93;;;19.43;;
17714;SDS011;8977;50.902;4.314;2022-11-20T00:29:44;30.70;;;21.47;;
17714;SDS011;8977;50.902;4.314;2022-11-20T00:32:10;25.20;;;19.03;;
17714;SDS011;8977;50.902;4.314;2022-11-20T00:34:37;29.87;;;18.73;;
17714;SDS011;8977;50.902;4.314;2022-11-20T00:37:04;31.57;;;21.77;;
17714;SDS011;8977;50.902;4.314;2022-11-20T00:39:31;29.97;;;20.70;;
17714;SDS011;8977;50.902;4.314;2022-11-20T00:41:59;27.27;;;19.47;;
17714;SDS011;8977;50.902;4.314;2022-11-20T00:44:26;30.10;;;19.60;;
17714;SDS011;8977;50.902;4.314;2022-11-20T00:46:53;27.97;;;18.60;;
17714;SDS011;8977;50.902;4.314;2022-11-20T00:49:20;29.17;;;20.37;;
17714;SDS011;8977;50.902;4.314;2022-11-20T00:51:46;29.50;;;20.10;;
17714;SDS011;8977;50.902;4.314;2022-11-20T00:54:14;27.47;;;20.17;;
17714;SDS011;8977;50.902;4.314;2022-11-20T00:56:41;29.63;;;20.33;;
17714;SDS011;8977;50.902;4.314;2022-11-20T00:59:10;30.17;;;19.73;;
17714;SDS011;8977;50.902;4.314;2022-11-20T01:01:37;27.63;;;20.03;;
17714;SDS011;8977;50.902;4.314;2022-11-20T01:04:04;28.60;;;20.03;;
17714;SDS011;8977;50.902;4.314;2022-11-20T01:06:32;30.37;;;20.80;;
17714;SDS011;8977;50.902;4.314;2022-11-20T01:09:01;28.67;;;19.87;;
17714;SDS011;8977;50.902;4.314;2022-11-20T01:11:30;28.00;;;18.80;;
17714;SDS011;8977;50.902;4.314;2022-11-20T01:13:59;29.43;;;19.87;;
17714;SDS011;8977;50.902;4.314;2022-11-20T01:16:30;28.23;;;19.40;;
17714;SDS011;8977;50.902;4.314;2022-11-20T01:18:59;29.30;;;19.93;;
17714;SDS011;8977;50.902;4.314;2022-11-20T01:21:28;28.10;;;20.20;;
17714;SDS011;8977;50.902;4.314;2022-11-20T01:23:56;31.23;;;20.37;;
17714;SDS011;8977;50.902;4.314;2022-11-20T01:26:24;32.77;;;21.20;;
17714;SDS011;8977;50.902;4.314;2022-11-20T01:28:52;30.83;;;21.90;;
17714;SDS011;8977;50.902;4.314;2022-11-20T01:31:21;32.13;;;21.20;;
17714;SDS011;8977;50.902;4.314;2022-11-20T01:33:51;34.30;;;20.87;;
17714;SDS011;8977;50.902;4.314;2022-11-20T01:36:20;34.90;;;22.13;;
17714;SDS011;8977;50.902;4.314;2022-11-20T01:38:50;35.67;;;22.27;;
17714;SDS011;8977;50.902;4.314;2022-11-20T01:41:17;35.47;;;23.20;;
17714;SDS011;8977;50.902;4.314;2022-11-20T01:43:58;37.13;;;24.17;;
17714;SDS011;8977;50.902;4.314;2022-11-20T01:46:26;35.37;;;24.37;;
17714;SDS011;8977;50.902;4.314;2022-11-20T01:48:55;35.00;;;25.23;;
17714;SDS011;8977;50.902;4.314;2022-11-20T01:51:28;37.53;;;23.60;;
17714;SDS011;8977;50.902;4.314;2022-11-20T01:53:59;34.77;;;22.30;;
17714;SDS011;8977;50.902;4.314;2022-11-20T01:56:29;33.57;;;23.97;;
17714;SDS011;8977;50.902;4.314;2022-11-20T01:58:59;34.97;;;24.00;;
17714;SDS011;8977;50.902;4.314;2022-11-20T02:01:31;35.63;;;23.50;;
17714;SDS011;8977;50.902;4.314;2022-11-20T02:04:00;32.77;;;23.23;;
17714;SDS011;8977;50.902;4.314;2022-11-20T02:06:28;33.77;;;23.97;;
17714;SDS011;8977;50.902;4.314;2022-11-20T02:08:58;35.37;;;23.47;;
17714;SDS011;8977;50.902;4.314;2022-11-20T02:11:25;34.03;;;23.77;;
17714;SDS011;8977;50.902;4.314;2022-11-20T02:13:52;35.87;;;23.83;;
17714;SDS011;8977;50.902;4.314;2022-11-20T02:16:20;35.53;;;23.40;;
17714;SDS011;8977;50.902;4.314;2022-11-20T02:18:49;31.67;;;23.33;;
17714;SDS011;8977;50.902;4.314;2022-11-20T02:21:30;32.17;;;22.63;;
17714;SDS011;8977;50.902;4.314;2022-11-20T02:24:05;33.77;;;23.60;;
17714;SDS011;8977;50.902;4.314;2022-11-20T02:26:37;35.00;;;22.63;;
17714;SDS011;8977;50.902;4.314;2022-11-20T02:29:08;33.83;;;22.10;;
17714;SDS011;8977;50.902;4.314;2022-11-20T02:31:36;33.80;;;23.07;;
17714;SDS011;8977;50.902;4.314;2022-11-20T02:34:06;35.20;;;22.83;;
17714;SDS011;8977;50.902;4.314;2022-11-20T02:36:33;30.23;;;21.77;;
17714;SDS011;8977;50.902;4.314;2022-11-20T02:39:01;34.33;;;23.23;;
17714;SDS011;8977;50.902;4.314;2022-11-20T02:41:34;33.07;;;22.23;;
17714;SDS011;8977;50.902;4.314;2022-11-20T02:44:03;32.13;;;21.47;;
17714;SDS011;8977;50.902;4.314;2022-11-20T02:46:30;31.87;;;22.10;;
17714;SDS011;8977;50.902;4.314;2022-11-20T02:48:57;29.63;;;21.00;;
17714;SDS011;8977;50.902;4.314;2022-11-20T02:51:24;29.97;;;20.80;;
17714;SDS011;8977;50.902;4.314;2022-11-20T02:53:51;29.77;;;20.47;;
17714;SDS011;8977;50.902;4.314;2022-11-20T02:56:19;28.43;;;18.73;;
17714;SDS011;8977;50.902;4.314;2022-11-20T02:58:47;28.53;;;19.27;;
17714;SDS011;8977;50.902;4.314;2022-11-20T03:01:14;32.70;;;21.20;;
17714;SDS011;8977;50.902;4.314;2022-11-20T03:03:41;30.13;;;20.60;;
17714;SDS011;8977;50.902;4.314;2022-11-20T03:06:08;30.93;;;20.57;;
17714;SDS011;8977;50.902;4.314;2022-11-20T03:08:35;28.43;;;19.20;;
17714;SDS011;8977;50.902;4.314;2022-11-20T03:11:03;29.27;;;19.37;;
17714;SDS011;8977;50.902;4.314;2022-11-20T03:13:31;30.57;;;19.53;;
17714;SDS011;8977;50.902;4.314;2022-11-20T03:16:03;29.40;;;19.90;;
17714;SDS011;8977;50.902;4.314;2022-11-20T03:18:35;28.67;;;18.87;;
17714;SDS011;8977;50.902;4.314;2022-11-20T03:21:02;26.87;;;18.57;;
17714;SDS011;8977;50.902;4.314;2022-11-20T03:23:29;28.33;;;19.27;;
17714;SDS011;8977;50.902;4.314;2022-11-20T03:26:06;30.00;;;18.83;;
17714;SDS011;8977;50.902;4.314;2022-11-20T03:28:34;28.67;;;19.07;;
17714;SDS011;8977;50.902;4.314;2022-11-20T03:31:05;29.23;;;19.93;;
17714;SDS011;8977;50.902;4.314;2022-11-20T03:33:33;27.10;;;19.20;;
17714;SDS011;8977;50.902;4.314;2022-11-20T03:36:01;26.93;;;19.30;;
17714;SDS011;8977;50.902;4.314;2022-11-20T03:38:29;29.20;;;19.50;;
17714;SDS011;8977;50.902;4.314;2022-11-20T03:41:00;25.60;;;18.17;;
17714;SDS011;8977;50.902;4.314;2022-11-20T03:43:28;30.63;;;19.67;;
17714;SDS011;8977;50.902;4.314;2022-11-20T03:45:55;29.70;;;19.87;;
17714;SDS011;8977;50.902;4.314;2022-11-20T03:48:24;28.27;;;19.97;;
17714;SDS011;8977;50.902;4.314;2022-11-20T03:50:51;28.67;;;18.07;;
17714;SDS011;8977;50.902;4.314;2022-11-20T03:53:19;30.30;;;19.90;;
17714;SDS011;8977;50.902;4.314;2022-11-20T03:55:50;29.00;;;19.63;;
17714;SDS011;8977;50.902;4.314;2022-11-20T03:58:18;27.83;;;19.27;;
17714;SDS011;8977;50.902;4.314;2022-11-20T04:00:45;29.20;;;20.30;;
17714;SDS011;8977;50.902;4.314;2022-11-20T04:03:12;28.87;;;19.53;;
17714;SDS011;8977;50.902;4.314;2022-11-20T04:05:40;29.83;;;19.90;;
17714;SDS011;8977;50.902;4.314;2022-11-20T04:08:07;28.17;;;19.17;;
17714;SDS011;8977;50.902;4.314;2022-11-20T04:10:34;28.90;;;19.30;;
17714;SDS011;8977;50.902;4.314;2022-11-20T04:13:01;28.90;;;20.20;;
17714;SDS011;8977;50.902;4.314;2022-11-20T04:15:28;31.33;;;20.93;;
17714;SDS011;8977;50.902;4.314;2022-11-20T04:17:55;29.13;;;18.90;;
17714;SDS011;8977;50.902;4.314;2022-11-20T04:20:21;31.63;;;20.70;;
17714;SDS011;8977;50.902;4.314;2022-11-20T04:22:50;30.10;;;19.53;;
17714;SDS011;8977;50.902;4.314;2022-11-20T04:25:20;30.70;;;20.13;;
17714;SDS011;8977;50.902;4.314;2022-11-20T04:27:47;32.37;;;20.37;;
17714;SDS011;8977;50.902;4.314;2022-11-20T04:30:13;31.57;;;19.93;;
17714;SDS011;8977;50.902;4.314;2022-11-20T04:32:40;31.90;;;20.17;;
17714;SDS011;8977;50.902;4.314;2022-11-20T04:35:07;29.87;;;19.23;;
17714;SDS011;8977;50.902;4.314;2022-11-20T04:37:34;30.27;;;19.20;;
17714;SDS011;8977;50.902;4.314;2022-11-20T04:40:03;34.63;;;20.30;;
17714;SDS011;8977;50.902;4.314;2022-11-20T04:42:30;34.30;;;21.03;;
17714;SDS011;8977;50.902;4.314;2022-11-20T04:44:57;34.77;;;21.40;;
17714;SDS011;8977;50.902;4.314;2022-11-20T04:47:24;34.80;;;20.37;;
17714;SDS011;8977;50.902;4.314;2022-11-20T04:49:51;35.33;;;21.43;;
17714;SDS011;8977;50.902;4.314;2022-11-20T04:52:18;35.70;;;21.73;;
17714;SDS011;8977;50.902;4.314;2022-11-20T04:54:45;35.73;;;21.23;;
17714;SDS011;8977;50.902;4.314;2022-11-20T04:57:14;37.53;;;22.77;;
17714;SDS011;8977;50.902;4.314;2022-11-20T04:59:41;36.93;;;21.60;;
17714;SDS011;8977;50.902;4.314;2022-11-20T05:02:08;37.70;;;22.70;;
17714;SDS011;8977;50.902;4.314;2022-11-20T05:04:35;36.77;;;21.60;;
17714;SDS011;8977;50.902;4.314;2022-11-20T05:07:02;35.87;;;21.80;;
17714;SDS011;8977;50.902;4.314;2022-11-20T05:09:29;40.30;;;22.30;;
17714;SDS011;8977;50.902;4.314;2022-11-20T05:11:56;36.13;;;21.50;;
17714;SDS011;8977;50.902;4.314;2022-11-20T05:14:24;36.50;;;21.27;;
17714;SDS011;8977;50.902;4.314;2022-11-20T05:16:51;39.77;;;22.83;;
17714;SDS011;8977;50.902;4.314;2022-11-20T05:19:18;38.70;;;22.90;;
17714;SDS011;8977;50.902;4.314;2022-11-20T05:21:45;39.77;;;22.03;;
17714;SDS011;8977;50.902;4.314;2022-11-20T05:24:12;35.93;;;21.97;;
17714;SDS011;8977;50.902;4.314;2022-11-20T05:26:39;41.50;;;22.83;;
17714;SDS011;8977;50.902;4.314;2022-11-20T05:29:06;42.97;;;22.80;;
17714;SDS011;8977;50.902;4.314;2022-11-20T05:31:34;40.37;;;22.60;;
17714;SDS011;8977;50.902;4.314;2022-11-20T05:34:02;39.57;;;23.50;;
17714;SDS011;8977;50.902;4.314;2022-11-20T05:36:29;36.83;;;21.87;;
17714;SDS011;8977;50.902;4.314;2022-11-20T05:38:56;38.30;;;22.73;;
17714;SDS011;8977;50.902;4.314;2022-11-20T05:41:23;37.70;;;23.03;;
17714;SDS011;8977;50.902;4.314;2022-11-20T05:43:50;39.57;;;22.57;;
17714;SDS011;8977;50.902;4.314;2022-11-20T05:46:18;39.07;;;22.73;;
17714;SDS011;8977;50.902;4.314;2022-11-20T05:48:47;42.63;;;22.90;;
17714;SDS011;8977;50.902;4.314;2022-11-20T05:51:16;40.50;;;24.00;;
17714;SDS011;8977;50.902;4.314;2022-11-20T05:53:44;44.70;;;24.03;;
17714;SDS011;8977;50.902;4.314;2022-11-20T05:56:12;41.90;;;24.17;;
17714;SDS011;8977;50.902;4.314;2022-11-20T05:58:40;39.13;;;22.13;;
17714;SDS011;8977;50.902;4.314;2022-11-20T06:01:08;43.23;;;23.90;;
17714;SDS011;8977;50.902;4.314;2022-11-20T06:03:37;45.43;;;23.07;;
17714;SDS011;8977;50.902;4.314;2022-11-20T06:06:06;41.07;;;24.00;;
17714;SDS011;8977;50.902;4.314;2022-11-20T06:08:34;42.90;;;23.97;;
17714;SDS011;8977;50.902;4.314;2022-11-20T06:11:04;43.10;;;23.90;;
17714;SDS011;8977;50.902;4.314;2022-11-20T06:13:32;41.20;;;24.10;;
17714;SDS011;8977;50.902;4.314;2022-11-20T06:15:59;43.60;;;25.17;;
17714;SDS011;8977;50.902;4.314;2022-11-20T06:18:26;42.57;;;23.57;;
17714;SDS011;8977;50.902;4.314;2022-11-20T06:21:00;43.77;;;22.93;;
17714;SDS011;8977;50.902;4.314;2022-11-20T06:23:31;41.33;;;23.17;;
17714;SDS011;8977;50.902;4.314;2022-11-20T06:26:00;45.03;;;23.23;;
17714;SDS011;8977;50.902;4.314;2022-11-20T06:28:28;42.83;;;23.30;;
17714;SDS011;8977;50.902;4.314;2022-11-20T06:30:54;44.43;;;24.73;;
17714;SDS011;8977;50.902;4.314;2022-11-20T06:33:21;44.77;;;23.70;;
17714;SDS011;8977;50.902;4.314;2022-11-20T06:35:48;42.60;;;23.50;;
17714;SDS011;8977;50.902;4.314;2022-11-20T06:38:15;46.33;;;24.07;;
17714;SDS011;8977;50.902;4.314;2022-11-20T06:40:43;45.60;;;25.03;;
17714;SDS011;8977;50.902;4.314;2022-11-20T06:43:10;42.57;;;24.27;;
17714;SDS011;8977;50.902;4.314;2022-11-20T06:45:37;47.90;;;25.60;;
17714;SDS011;8977;50.902;4.314;2022-11-20T06:48:04;43.50;;;23.73;;
17714;SDS011;8977;50.902;4.314;2022-11-20T06:50:31;45.03;;;23.73;;
17714;SDS011;8977;50.902;4.314;2022-11-20T06:53:00;44.33;;;23.77;;
17714;SDS011;8977;50.902;4.314;2022-11-20T06:55:27;49.00;;;24.87;;
17714;SDS011;8977;50.902;4.314;2022-11-20T06:57:56;40.87;;;22.47;;
17714;SDS011;8977;50.902;4.314;2022-11-20T07:00:23;45.20;;;24.07;;
17714;SDS011;8977;50.902;4.314;2022-11-20T07:02:50;44.83;;;24.80;;
17714;SDS011;8977;50.902;4.314;2022-11-20T07:05:17;46.27;;;24.17;;
17714;SDS011;8977;50.902;4.314;2022-11-20T07:07:44;43.53;;;23.77;;
17714;SDS011;8977;50.902;4.314;2022-11-20T07:10:11;46.30;;;23.67;;
17714;SDS011;8977;50.902;4.314;2022-11-20T07:12:38;43.13;;;23.83;;
17714;SDS011;8977;50.902;4.314;2022-11-20T07:15:07;42.63;;;23.87;;
17714;SDS011;8977;50.902;4.314;2022-11-20T07:17:34;45.97;;;24.37;;
17714;SDS011;8977;50.902;4.314;2022-11-20T07:20:02;42.00;;;24.03;;
17714;SDS011;8977;50.902;4.314;2022-11-20T07:22:29;45.90;;;23.53;;
17714;SDS011;8977;50.902;4.314;2022-11-20T07:24:55;44.50;;;24.10;;
17714;SDS011;8977;50.902;4.314;2022-11-20T07:27:22;40.93;;;23.13;;
17714;SDS011;8977;50.902;4.314;2022-11-20T07:29:49;41.57;;;22.77;;
17714;SDS011;8977;50.902;4.314;2022-11-20T07:32:17;44.27;;;24.43;;
17714;SDS011;8977;50.902;4.314;2022-11-20T07:34:44;42.43;;;24.23;;
17714;SDS011;8977;50.902;4.314;2022-11-20T07:37:11;41.83;;;23.73;;
17714;SDS011;8977;50.902;4.314;2022-11-20T07:39:38;43.27;;;23.33;;
17714;SDS011;8977;50.902;4.314;2022-11-20T07:42:05;43.90;;;23.13;;
17714;SDS011;8977;50.902;4.314;2022-11-20T07:44:33;40.50;;;22.67;;
17714;SDS011;8977;50.902;4.314;2022-11-20T07:47:00;40.93;;;21.87;;
17714;SDS011;8977;50.902;4.314;2022-11-20T07:49:28;37.80;;;21.97;;
17714;SDS011;8977;50.902;4.314;2022-11-20T07:51:55;45.20;;;24.03;;
17714;SDS011;8977;50.902;4.314;2022-11-20T07:54:22;38.53;;;22.03;;
17714;SDS011;8977;50.902;4.314;2022-11-20T07:56:49;39.67;;;23.20;;
17714;SDS011;8977;50.902;4.314;2022-11-20T07:59:16;35.73;;;20.83;;
17714;SDS011;8977;50.902;4.314;2022-11-20T08:01:43;40.60;;;22.43;;
17714;SDS011;8977;50.902;4.314;2022-11-20T08:04:10;40.93;;;21.30;;
17714;SDS011;8977;50.902;4.314;2022-11-20T08:06:38;42.40;;;22.17;;
17714;SDS011;8977;50.902;4.314;2022-11-20T08:09:05;42.90;;;22.67;;
17714;SDS011;8977;50.902;4.314;2022-11-20T08:11:32;44.67;;;22.23;;
17714;SDS011;8977;50.902;4.314;2022-11-20T08:14:17;43.13;;;21.47;;
17714;SDS011;8977;50.902;4.314;2022-11-20T08:16:44;41.30;;;22.10;;
17714;SDS011;8977;50.902;4.314;2022-11-20T08:19:13;43.60;;;20.97;;
17714;SDS011;8977;50.902;4.314;2022-11-20T08:21:42;43.57;;;22.10;;
17714;SDS011;8977;50.902;4.314;2022-11-20T08:24:09;49.37;;;22.70;;
17714;SDS011;8977;50.902;4.314;2022-11-20T08:26:37;42.77;;;21.57;;
17714;SDS011;8977;50.902;4.314;2022-11-20T08:29:05;46.67;;;22.03;;
17714;SDS011;8977;50.902;4.314;2022-11-20T08:31:32;43.87;;;21.83;;
17714;SDS011;8977;50.902;4.314;2022-11-20T08:33:59;39.47;;;20.53;;
17714;SDS011;8977;50.902;4.314;2022-11-20T08:36:26;39.47;;;20.47;;
17714;SDS011;8977;50.902;4.314;2022-11-20T08:38:55;37.70;;;19.60;;
17714;SDS011;8977;50.902;4.314;2022-11-20T08:41:22;38.33;;;20.87;;
17714;SDS011;8977;50.902;4.314;2022-11-20T08:43:53;39.70;;;20.00;;
17714;SDS011;8977;50.902;4.314;2022-11-20T08:46:21;38.40;;;20.63;;
17714;SDS011;8977;50.902;4.314;2022-11-20T08:48:49;37.53;;;20.53;;
17714;SDS011;8977;50.902;4.314;2022-11-20T08:51:16;35.47;;;18.63;;
17714;SDS011;8977;50.902;4.314;2022-11-20T08:53:43;39.13;;;20.67;;
17714;SDS011;8977;50.902;4.314;2022-11-20T08:56:12;38.10;;;21.13;;
17714;SDS011;8977;50.902;4.314;2022-11-20T08:58:39;34.97;;;19.80;;
17714;SDS011;8977;50.902;4.314;2022-11-20T09:01:06;35.90;;;20.23;;
17714;SDS011;8977;50.902;4.314;2022-11-20T09:03:33;42.93;;;20.77;;
17714;SDS011;8977;50.902;4.314;2022-11-20T09:06:00;40.87;;;20.60;;
17714;SDS011;8977;50.902;4.314;2022-11-20T09:08:29;36.70;;;18.57;;
17714;SDS011;8977;50.902;4.314;2022-11-20T09:10:57;34.67;;;19.10;;
17714;SDS011;8977;50.902;4.314;2022-11-20T09:13:27;37.33;;;19.57;;
17714;SDS011;8977;50.902;4.314;2022-11-20T09:15:54;36.17;;;19.97;;
17714;SDS011;8977;50.902;4.314;2022-11-20T09:18:21;39.03;;;19.63;;
17714;SDS011;8977;50.902;4.314;2022-11-20T09:20:48;32.30;;;18.67;;
17714;SDS011;8977;50.902;4.314;2022-11-20T09:23:16;35.43;;;20.13;;
17714;SDS011;8977;50.902;4.314;2022-11-20T09:25:43;39.90;;;20.97;;
17714;SDS011;8977;50.902;4.314;2022-11-20T09:28:10;35.67;;;19.33;;
17714;SDS011;8977;50.902;4.314;2022-11-20T09:30:39;34.03;;;19.27;;
17714;SDS011;8977;50.902;4.314;2022-11-20T09:33:05;33.83;;;19.17;;
17714;SDS011;8977;50.902;4.314;2022-11-20T09:35:32;34.43;;;18.97;;
17714;SDS011;8977;50.902;4.314;2022-11-20T09:38:04;30.57;;;17.37;;
17714;SDS011;8977;50.902;4.314;2022-11-20T09:40:31;31.57;;;17.70;;
17714;SDS011;8977;50.902;4.314;2022-11-20T09:43:01;30.50;;;16.50;;
17714;SDS011;8977;50.902;4.314;2022-11-20T09:45:37;30.20;;;16.00;;
17714;SDS011;8977;50.902;4.314;2022-11-20T09:48:16;29.50;;;17.23;;
17714;SDS011;8977;50.902;4.314;2022-11-20T09:50:52;34.83;;;17.00;;
17714;SDS011;8977;50.902;4.314;2022-11-20T09:53:24;29.50;;;17.43;;
17714;SDS011;8977;50.902;4.314;2022-11-20T09:55:57;31.00;;;17.13;;
17714;SDS011;8977;50.902;4.314;2022-11-20T09:58:28;26.50;;;16.17;;
17714;SDS011;8977;50.902;4.314;2022-11-20T10:01:03;26.93;;;16.03;;
17714;SDS011;8977;50.902;4.314;2022-11-20T10:03:38;27.77;;;15.80;;
17714;SDS011;8977;50.902;4.314;2022-11-20T10:06:12;30.37;;;14.87;;
17714;SDS011;8977;50.902;4.314;2022-11-20T10:08:45;24.30;;;14.37;;
17714;SDS011;8977;50.902;4.314;2022-11-20T10:11:18;24.03;;;14.30;;
17714;SDS011;8977;50.902;4.314;2022-11-20T10:13:58;24.30;;;13.73;;
17714;SDS011;8977;50.902;4.314;2022-11-20T10:16:35;25.90;;;14.30;;
17714;SDS011;8977;50.902;4.314;2022-11-20T10:19:16;21.23;;;12.90;;
17714;SDS011;8977;50.902;4.314;2022-11-20T10:21:58;23.87;;;13.90;;
17714;SDS011;8977;50.902;4.314;2022-11-20T10:24:36;23.00;;;13.73;;
17714;SDS011;8977;50.902;4.314;2022-11-20T10:27:17;21.70;;;13.33;;
17714;SDS011;8977;50.902;4.314;2022-11-20T10:30:00;19.10;;;12.10;;
17714;SDS011;8977;50.902;4.314;2022-11-20T10:32:32;20.07;;;11.97;;
17714;SDS011;8977;50.902;4.314;2022-11-20T10:35:05;19.93;;;11.40;;
17714;SDS011;8977;50.902;4.314;2022-11-20T10:37:41;16.93;;;10.73;;
17714;SDS011;8977;50.902;4.314;2022-11-20T10:40:16;21.50;;;11.83;;
17714;SDS011;8977;50.902;4.314;2022-11-20T10:42:49;19.00;;;10.70;;
17714;SDS011;8977;50.902;4.314;2022-11-20T10:45:27;16.70;;;9.73;;
17714;SDS011;8977;50.902;4.314;2022-11-20T10:48:10;17.90;;;9.83;;
17714;SDS011;8977;50.902;4.314;2022-11-20T10:50:47;13.63;;;8.30;;
17714;SDS011;8977;50.902;4.314;2022-11-20T10:53:27;12.00;;;7.30;;
17714;SDS011;8977;50.902;4.314;2022-11-20T10:56:07;11.60;;;6.77;;
17714;SDS011;8977;50.902;4.314;2022-11-20T10:58:43;12.17;;;6.63;;
17714;SDS011;8977;50.902;4.314;2022-11-20T11:01:16;12.03;;;6.27;;
17714;SDS011;8977;50.902;4.314;2022-11-20T11:03:45;10.87;;;6.70;;
17714;SDS011;8977;50.902;4.314;2022-11-20T11:06:14;11.17;;;5.80;;
17714;SDS011;8977;50.902;4.314;2022-11-20T11:08:48;9.23;;;5.63;;
17714;SDS011;8977;50.902;4.314;2022-11-20T11:11:20;12.07;;;5.73;;
17714;SDS011;8977;50.902;4.314;2022-11-20T11:13:50;9.80;;;5.10;;
17714;SDS011;8977;50.902;4.314;2022-11-20T11:16:21;9.33;;;4.90;;
17714;SDS011;8977;50.902;4.314;2022-11-20T11:18:51;10.90;;;6.83;;
17714;SDS011;8977;50.902;4.314;2022-11-20T11:21:29;9.33;;;6.40;;
17714;SDS011;8977;50.902;4.314;2022-11-20T11:23:58;9.07;;;5.57;;
17714;SDS011;8977;50.902;4.314;2022-11-20T11:26:28;9.03;;;5.63;;
17714;SDS011;8977;50.902;4.314;2022-11-20T11:28:55;9.27;;;5.33;;
17714;SDS011;8977;50.902;4.314;2022-11-20T11:31:24;9.77;;;5.37;;
17714;SDS011;8977;50.902;4.314;2022-11-20T11:34:02;10.53;;;5.50;;
17714;SDS011;8977;50.902;4.314;2022-11-20T11:36:31;10.03;;;5.17;;
17714;SDS011;8977;50.902;4.314;2022-11-20T11:38:59;12.33;;;6.40;;
17714;SDS011;8977;50.902;4.314;2022-11-20T11:41:28;11.70;;;5.90;;
17714;SDS011;8977;50.902;4.314;2022-11-20T11:44:00;9.03;;;5.57;;
17714;SDS011;8977;50.902;4.314;2022-11-20T11:46:49;8.63;;;4.97;;
17714;SDS011;8977;50.902;4.314;2022-11-20T11:49:21;9.83;;;4.80;;
17714;SDS011;8977;50.902;4.314;2022-11-20T11:51:55;10.77;;;5.30;;
17714;SDS011;8977;50.902;4.314;2022-11-20T11:54:28;7.80;;;4.40;;
17714;SDS011;8977;50.902;4.314;2022-11-20T11:57:01;8.27;;;4.13;;
17714;SDS011;8977;50.902;4.314;2022-11-20T11:59:43;7.00;;;4.57;;
17714;SDS011;8977;50.902;4.314;2022-11-20T12:02:27;9.83;;;4.70;;
17714;SDS011;8977;50.902;4.314;2022-11-20T12:05:04;6.13;;;4.10;;
17714;SDS011;8977;50.902;4.314;2022-11-20T12:07:41;9.60;;;4.43;;
17714;SDS011;8977;50.902;4.314;2022-11-20T12:10:14;6.23;;;4.50;;
17714;SDS011;8977;50.902;4.314;2022-11-20T12:12:45;8.53;;;4.57;;
17714;SDS011;8977;50.902;4.314;2022-11-20T12:15:18;7.07;;;4.63;;
17714;SDS011;8977;50.902;4.314;2022-11-20T12:17:52;8.27;;;4.67;;
17714;SDS011;8977;50.902;4.314;2022-11-20T12:20:21;8.30;;;3.97;;
17714;SDS011;8977;50.902;4.314;2022-11-20T12:22:54;7.70;;;4.33;;
17714;SDS011;8977;50.902;4.314;2022-11-20T12:25:29;7.37;;;4.30;;
17714;SDS011;8977;50.902;4.314;2022-11-20T12:28:02;7.53;;;4.40;;
17714;SDS011;8977;50.902;4.314;2022-11-20T12:30:52;10.70;;;4.37;;
17714;SDS011;8977;50.902;4.314;2022-11-20T12:36:41;8.37;;;3.60;;
17714;SDS011;8977;50.902;4.314;2022-11-20T12:39:21;6.77;;;3.23;;
17714;SDS011;8977;50.902;4.314;2022-11-20T12:42:07;4.73;;;2.73;;
17714;SDS011;8977;50.902;4.314;2022-11-20T12:48:33;6.60;;;3.13;;
17714;SDS011;8977;50.902;4.314;2022-11-20T12:54:28;5.20;;;2.97;;
17714;SDS011;8977;50.902;4.314;2022-11-20T12:57:16;6.30;;;3.13;;
17714;SDS011;8977;50.902;4.314;2022-11-20T13:02:42;6.33;;;3.20;;
17714;SDS011;8977;50.902;4.314;2022-11-20T13:05:27;4.87;;;3.13;;
17714;SDS011;8977;50.902;4.314;2022-11-20T13:08:03;7.43;;;3.47;;
17714;SDS011;8977;50.902;4.314;2022-11-20T13:10:35;6.03;;;3.17;;
17714;SDS011;8977;50.902;4.314;2022-11-20T13:13:11;4.93;;;3.17;;
17714;SDS011;8977;50.902;4.314;2022-11-20T13:15:44;6.10;;;3.30;;
17714;SDS011;8977;50.902;4.314;2022-11-20T13:18:16;4.77;;;3.33;;
17714;SDS011;8977;50.902;4.314;2022-11-20T13:20:44;6.00;;;3.90;;
17714;SDS011;8977;50.902;4.314;2022-11-20T13:23:23;5.30;;;3.20;;
17714;SDS011;8977;50.902;4.314;2022-11-20T13:26:05;4.17;;;3.63;;
17714;SDS011;8977;50.902;4.314;2022-11-20T13:28:40;3.97;;;3.17;;
17714;SDS011;8977;50.902;4.314;2022-11-20T13:31:09;5.00;;;3.17;;
17714;SDS011;8977;50.902;4.314;2022-11-20T13:33:53;7.53;;;3.87;;
17714;SDS011;8977;50.902;4.314;2022-11-20T13:36:22;5.33;;;3.27;;
17714;SDS011;8977;50.902;4.314;2022-11-20T13:38:52;4.80;;;2.80;;
17714;SDS011;8977;50.902;4.314;2022-11-20T13:41:24;4.97;;;3.00;;
17714;SDS011;8977;50.902;4.314;2022-11-20T13:43:57;3.70;;;2.97;;
17714;SDS011;8977;50.902;4.314;2022-11-20T13:46:35;4.23;;;3.07;;
17714;SDS011;8977;50.902;4.314;2022-11-20T13:49:07;5.00;;;3.00;;
17714;SDS011;8977;50.902;4.314;2022-11-20T13:51:37;5.93;;;2.83;;
17714;SDS011;8977;50.902;4.314;2022-11-20T13:57:24;3.97;;;3.03;;
17714;SDS011;8977;50.902;4.314;2022-11-20T14:00:19;3.87;;;2.80;;
17714;SDS011;8977;50.902;4.314;2022-11-20T14:02:50;4.17;;;2.90;;
17714;SDS011;8977;50.902;4.314;2022-11-20T14:05:27;3.20;;;2.60;;
17714;SDS011;8977;50.902;4.314;2022-11-20T14:07:56;3.80;;;2.70;;
17714;SDS011;8977;50.902;4.314;2022-11-20T14:10:24;4.07;;;3.00;;
17714;SDS011;8977;50.902;4.314;2022-11-20T14:12:54;4.90;;;2.63;;
17714;SDS011;8977;50.902;4.314;2022-11-20T14:15:25;3.93;;;2.67;;
17714;SDS011;8977;50.902;4.314;2022-11-20T14:17:54;4.43;;;2.60;;
17714;SDS011;8977;50.902;4.314;2022-11-20T14:20:22;3.13;;;2.67;;
17714;SDS011;8977;50.902;4.314;2022-11-20T14:22:52;3.63;;;2.73;;
17714;SDS011;8977;50.902;4.314;2022-11-20T14:25:20;4.50;;;2.97;;
17714;SDS011;8977;50.902;4.314;2022-11-20T14:27:52;3.97;;;2.63;;
17714;SDS011;8977;50.902;4.314;2022-11-20T14:30:23;4.57;;;2.80;;
17714;SDS011;8977;50.902;4.314;2022-11-20T14:32:52;2.83;;;2.60;;
17714;SDS011;8977;50.902;4.314;2022-11-20T14:35:23;2.83;;;2.30;;
17714;SDS011;8977;50.902;4.314;2022-11-20T14:37:52;2.70;;;2.33;;
17714;SDS011;8977;50.902;4.314;2022-11-20T14:40:27;3.03;;;2.83;;
17714;SDS011;8977;50.902;4.314;2022-11-20T14:42:57;3.63;;;2.73;;
17714;SDS011;8977;50.902;4.314;2022-11-20T14:45:25;2.93;;;2.37;;
17714;SDS011;8977;50.902;4.314;2022-11-20T14:47:53;2.53;;;2.20;;
17714;SDS011;8977;50.902;4.314;2022-11-20T14:50:23;2.43;;;2.20;;
17714;SDS011;8977;50.902;4.314;2022-11-20T14:52:51;2.47;;;2.23;;
17714;SDS011;8977;50.902;4.314;2022-11-20T14:55:26;2.13;;;1.90;;
17714;SDS011;8977;50.902;4.314;2022-11-20T14:57:59;2.30;;;2.10;;
17714;SDS011;8977;50.902;4.314;2022-11-20T15:00:28;3.67;;;2.10;;
17714;SDS011;8977;50.902;4.314;2022-11-20T15:02:56;3.50;;;2.37;;
17714;SDS011;8977;50.902;4.314;2022-11-20T15:05:25;4.07;;;2.30;;
17714;SDS011;8977;50.902;4.314;2022-11-20T15:08:10;4.60;;;2.90;;
17714;SDS011;8977;50.902;4.314;2022-11-20T15:10:38;2.97;;;2.30;;
17714;SDS011;8977;50.902;4.314;2022-11-20T15:13:12;4.20;;;3.03;;